Sks Doda — LANE7 — position and weather

sailwx.info

Track history (hours):
 
Tides and Currents Weather Stations Pressure Air Temp Water Temp Dewpoint Dewpoint Depression Visibility Wind Speed Wind Dir Waves Ship Positions

Sks Doda

Last reported at 2018-May-26 14:51 UTC. Time now 2018-Jun-23 04:42 UTC.
Position S 32°32' E 152°57'.
Warning: this ship's position is 27 days out of date.

Length 250 m; draft 10.5 m.

Type: Tanker. MMSI: 259984000.

Date/timePositionNaut miles runAvg speedWind from/ knotsBaromVisibWave heightAir tempDewpointWater temp
2018-May-26 14:51S 32°32' E 152°57'513.3
2018-May-26 14:30S 32°37' E 152°56'713.0
2018-May-26 14:00S 32°43' E 152°53'712.8
2018-May-26 13:28S 32°48' E 152°48'912.3
2018-May-26 12:43S 32°55' E 152°41'1611.9
2018-May-26 11:21S 33°08' E 152°29'611.7
2018-May-26 10:48S 33°13' E 152°24'3611.8
2018-May-26 07:45S 33°41' E 151°57'312.0
2018-May-26 07:30S 33°43' E 151°54'612.9
2018-May-26 07:00S 33°48' E 151°49'813.2
2018-May-26 06:22S 33°52' E 151°41'1213.5
2018-May-26 05:30S 33°57' E 151°28'713.4
2018-May-26 04:59S 34°00' E 151°20'  
2018-May-23 23:11S 34°01' E 151°16'1 6.7
2018-May-23 23:00S 34°01' E 151°17'4 9.1
2018-May-23 22:31S 33°60' E 151°23'612.7
2018-May-23 22:01S 33°57' E 151°30'714.1
2018-May-23 21:31S 33°54' E 151°37'713.7
2018-May-23 21:00S 33°50' E 151°44'5 8.8
2018-May-23 20:29S 33°47' E 151°48'0 1.0
2018-May-23 20:00S 33°47' E 151°48'0 0.9
2018-May-23 19:29S 33°48' E 151°48'0 1.0
2018-May-23 19:00S 33°48' E 151°48'0 0.9
2018-May-23 18:30S 33°49' E 151°47'0 0.9
2018-May-23 18:00S 33°49' E 151°47'0 0.9
2018-May-23 17:30S 33°49' E 151°47'0 1.0
2018-May-23 17:00S 33°50' E 151°47'1 0.9
2018-May-23 16:25S 33°50' E 151°46'0 0.9
2018-May-23 16:00S 33°51' E 151°46'1 1.0
2018-May-23 15:30S 33°51' E 151°46'0 1.0
2018-May-23 15:00S 33°51' E 151°46'0 1.0
2018-May-23 14:30S 33°52' E 151°45'1 1.0
2018-May-23 14:00S 33°52' E 151°45'0 1.0
2018-May-23 13:30S 33°53' E 151°44'1 1.2
2018-May-23 12:17S 33°53' E 151°43'0 1.1
2018-May-23 11:57S 33°54' E 151°43'1 1.1
2018-May-23 11:07S 33°54' E 151°42'0 0.9
2018-May-23 10:54S 33°54' E 151°41'0 1.1
2018-May-23 10:30S 33°54' E 151°41'0 1.0
2018-May-23 10:00S 33°55' E 151°41'1 1.0
2018-May-23 09:27S 33°55' E 151°40'0 0.9
2018-May-23 09:00S 33°55' E 151°40'1 0.9
2018-May-23 08:27S 33°55' E 151°39'0 0.8
2018-May-23 08:00S 33°56' E 151°39'0 0.9
2018-May-23 07:30S 33°56' E 151°38'0 0.9
2018-May-23 07:00S 33°56' E 151°38'2 3.6
2018-May-23 06:30S 33°54' E 151°37'612.9
2018-May-23 06:00S 33°51' E 151°44'4612.3
2018-May-23 02:18S 33°17' E 152°19'412.3
2018-May-23 01:59S 33°13' E 152°22'611.8
2018-May-23 01:29S 33°09' E 152°27'611.6
2018-May-23 00:59S 33°04' E 152°31'511.3
2018-May-23 00:30S 32°60' E 152°34'612.2
2018-May-23 00:00S 32°55' E 152°39'611.4
2018-May-22 23:29S 32°50' E 152°43'612.0
2018-May-22 22:59S 32°45' E 152°47'611.6
2018-May-22 22:30S 32°40' E 152°50'28612.7
2018-May-21 23:57S 27°60' E 153°58'613.4
2018-May-21 23:29S 27°54' E 153°58'813.1
2018-May-21 22:54S 27°46' E 153°59'513.3
2018-May-21 22:30S 27°41' E 153°59'713.1
2018-May-21 21:59S 27°34' E 153°58'1113.3
2018-May-21 21:09S 27°24' E 153°53'313.0
2018-May-21 20:57S 27°21' E 153°52'613.1
2018-May-21 20:31S 27°16' E 153°50'713.3
2018-May-21 19:59S 27°09' E 153°47'613.2
2018-May-21 19:30S 27°04' E 153°45'712.9
2018-May-21 18:56S 26°57' E 153°42'612.7
2018-May-21 18:27S 26°51' E 153°39'611.8
2018-May-21 17:56S 26°48' E 153°34'613.4
2018-May-21 17:31S 26°46' E 153°27'713.4
2018-May-21 17:00S 26°45' E 153°20'713.3
2018-May-21 16:30S 26°42' E 153°13'3 6.0
2018-May-21 16:00S 26°45' E 153°11'612.0
2018-May-21 15:30S 26°51' E 153°09'713.9
2018-May-21 15:01S 26°57' E 153°13'713.4
2018-May-21 14:30S 27°03' E 153°16'612.8
2018-May-21 14:00S 27°08' E 153°21'713.5
2018-May-21 13:30S 27°14' E 153°20'714.4
2018-May-21 13:00S 27°18' E 153°13'510.9
2018-May-21 12:31S 27°23' E 153°10'  
2018-May-18 08:05S 27°23' E 153°10'0 0.0
2018-May-18 08:00S 27°23' E 153°10'1 1.4
2018-May-18 07:30S 27°22' E 153°10'3 5.3
2018-May-18 07:00S 27°20' E 153°11'510.9
2018-May-18 06:30S 27°16' E 153°16'612.3
2018-May-18 06:00S 27°12' E 153°21'611.8
2018-May-18 05:30S 27°06' E 153°19'611.5
2018-May-18 05:00S 27°02' E 153°15'712.5
2018-May-18 04:27S 26°55' E 153°12'611.7
2018-May-18 03:54S 26°50' E 153°09'  
Track history (hours):
 
Tides and Currents Weather Stations Pressure Air Temp Water Temp Dewpoint Dewpoint Depression Visibility Wind Speed Wind Dir Waves Ship Positions

Sks Doda

Last reported at 2018-May-26 14:51 UTC. Time now 2018-Jun-23 04:42 UTC.
Position S 32°32' E 152°57'.
Warning: this ship's position is 27 days out of date.

Length 250 m; draft 10.5 m.

Type: Tanker. MMSI: 259984000.

Date/timePositionNaut miles runAvg speedWind from/ knotsBaromVisibWave heightAir tempDewpointWater temp
2018-May-26 14:51S 32°32' E 152°57'513.3
2018-May-26 14:30S 32°37' E 152°56'713.0
2018-May-26 14:00S 32°43' E 152°53'712.8
2018-May-26 13:28S 32°48' E 152°48'912.3
2018-May-26 12:43S 32°55' E 152°41'1611.9
2018-May-26 11:21S 33°08' E 152°29'611.7
2018-May-26 10:48S 33°13' E 152°24'3611.8
2018-May-26 07:45S 33°41' E 151°57'312.0
2018-May-26 07:30S 33°43' E 151°54'612.9
2018-May-26 07:00S 33°48' E 151°49'813.2
2018-May-26 06:22S 33°52' E 151°41'1213.5
2018-May-26 05:30S 33°57' E 151°28'713.4
2018-May-26 04:59S 34°00' E 151°20'  
2018-May-23 23:11S 34°01' E 151°16'1 6.7
2018-May-23 23:00S 34°01' E 151°17'4 9.1
2018-May-23 22:31S 33°60' E 151°23'612.7
2018-May-23 22:01S 33°57' E 151°30'714.1
2018-May-23 21:31S 33°54' E 151°37'713.7
2018-May-23 21:00S 33°50' E 151°44'5 8.8
2018-May-23 20:29S 33°47' E 151°48'0 1.0
2018-May-23 20:00S 33°47' E 151°48'0 0.9
2018-May-23 19:29S 33°48' E 151°48'0 1.0
2018-May-23 19:00S 33°48' E 151°48'0 0.9
2018-May-23 18:30S 33°49' E 151°47'0 0.9
2018-May-23 18:00S 33°49' E 151°47'0 0.9
2018-May-23 17:30S 33°49' E 151°47'0 1.0
2018-May-23 17:00S 33°50' E 151°47'1 0.9
2018-May-23 16:25S 33°50' E 151°46'0 0.9
2018-May-23 16:00S 33°51' E 151°46'1 1.0
2018-May-23 15:30S 33°51' E 151°46'0 1.0
2018-May-23 15:00S 33°51' E 151°46'0 1.0
2018-May-23 14:30S 33°52' E 151°45'1 1.0
2018-May-23 14:00S 33°52' E 151°45'0 1.0
2018-May-23 13:30S 33°53' E 151°44'1 1.2
2018-May-23 12:17S 33°53' E 151°43'0 1.1
2018-May-23 11:57S 33°54' E 151°43'1 1.1
2018-May-23 11:07S 33°54' E 151°42'0 0.9
2018-May-23 10:54S 33°54' E 151°41'0 1.1
2018-May-23 10:30S 33°54' E 151°41'0 1.0
2018-May-23 10:00S 33°55' E 151°41'1 1.0
2018-May-23 09:27S 33°55' E 151°40'0 0.9
2018-May-23 09:00S 33°55' E 151°40'1 0.9
2018-May-23 08:27S 33°55' E 151°39'0 0.8
2018-May-23 08:00S 33°56' E 151°39'0 0.9
2018-May-23 07:30S 33°56' E 151°38'0 0.9
2018-May-23 07:00S 33°56' E 151°38'2 3.6
2018-May-23 06:30S 33°54' E 151°37'612.9
2018-May-23 06:00S 33°51' E 151°44'4612.3
2018-May-23 02:18S 33°17' E 152°19'412.3
2018-May-23 01:59S 33°13' E 152°22'611.8
2018-May-23 01:29S 33°09' E 152°27'611.6
2018-May-23 00:59S 33°04' E 152°31'511.3
2018-May-23 00:30S 32°60' E 152°34'612.2
2018-May-23 00:00S 32°55' E 152°39'611.4
2018-May-22 23:29S 32°50' E 152°43'612.0
2018-May-22 22:59S 32°45' E 152°47'611.6
2018-May-22 22:30S 32°40' E 152°50'28612.7
2018-May-21 23:57S 27°60' E 153°58'613.4
2018-May-21 23:29S 27°54' E 153°58'813.1
2018-May-21 22:54S 27°46' E 153°59'513.3
2018-May-21 22:30S 27°41' E 153°59'713.1
2018-May-21 21:59S 27°34' E 153°58'1113.3
2018-May-21 21:09S 27°24' E 153°53'313.0
2018-May-21 20:57S 27°21' E 153°52'613.1
2018-May-21 20:31S 27°16' E 153°50'713.3
2018-May-21 19:59S 27°09' E 153°47'613.2
2018-May-21 19:30S 27°04' E 153°45'712.9
2018-May-21 18:56S 26°57' E 153°42'612.7
2018-May-21 18:27S 26°51' E 153°39'611.8
2018-May-21 17:56S 26°48' E 153°34'613.4
2018-May-21 17:31S 26°46' E 153°27'713.4
2018-May-21 17:00S 26°45' E 153°20'713.3
2018-May-21 16:30S 26°42' E 153°13'3 6.0
2018-May-21 16:00S 26°45' E 153°11'612.0
2018-May-21 15:30S 26°51' E 153°09'713.9
2018-May-21 15:01S 26°57' E 153°13'713.4
2018-May-21 14:30S 27°03' E 153°16'612.8
2018-May-21 14:00S 27°08' E 153°21'713.5
2018-May-21 13:30S 27°14' E 153°20'714.4
2018-May-21 13:00S 27°18' E 153°13'510.9
2018-May-21 12:31S 27°23' E 153°10'  
2018-May-18 08:05S 27°23' E 153°10'0 0.0
2018-May-18 08:00S 27°23' E 153°10'1 1.4
2018-May-18 07:30S 27°22' E 153°10'3 5.3
2018-May-18 07:00S 27°20' E 153°11'510.9
2018-May-18 06:30S 27°16' E 153°16'612.3
2018-May-18 06:00S 27°12' E 153°21'611.8
2018-May-18 05:30S 27°06' E 153°19'611.5
2018-May-18 05:00S 27°02' E 153°15'712.5
2018-May-18 04:27S 26°55' E 153°12'611.7
2018-May-18 03:54S 26°50' E 153°09'  

Dump ship's entire track history